Time;durP1;ratioP1;P1;durP2;ratioP2;P2;SDS_P1;SDS_P2;PMS_P1;PMS_P2;Temp;Humidity;BMP_temperature;BMP_pressure;BME280_temperature;BME280_humidity;BME280_pressure;Samples;Min_cycle;Max_cycle;Signal;HPM_P1;HPM_P2
2022/01/12 00:01:52;;;;;;;;;;;18.80;43.90;;;;;;5045096;28;42830;-75
2022/01/12 00:04:17;;;;;;;;;;;18.80;43.90;;;;;;5045007;28;42882;-77
2022/01/12 00:06:43;;;;;;;;;;;18.80;44.10;;;;;;5044627;28;44177;-75
2022/01/12 00:09:09;;;;;;;;;;;18.80;44.30;;;;;;5045474;28;43011;-74
2022/01/12 00:11:35;;;;;;;;;;;18.80;44.00;;;;;;5055707;28;43014;-81
2022/01/12 00:14:00;;;;;;;;;;;18.80;43.90;;;;;;5046053;28;42861;-77
2022/01/12 00:16:26;;;;;;;;;;;18.80;44.70;;;;;;5044822;28;43638;-85
2022/01/12 00:18:51;;;;;;;;;;;18.80;44.10;;;;;;5045202;28;42953;-84
2022/01/12 00:21:17;;;;;;;;;;;18.80;44.10;;;;;;5044082;28;43770;-82
2022/01/12 00:23:43;;;;;;;;;;;18.80;44.50;;;;;;5044360;28;43111;-77
2022/01/12 00:26:12;;;;;;;;;;;18.80;44.30;;;;;;5045367;28;44059;-75
2022/01/12 00:34:07;;;;;;;;;;;18.80;44.20;;;;;;5045091;28;43025;-86
2022/01/12 00:36:33;;;;;;;;;;;18.80;44.30;;;;;;5044504;28;43019;-79
2022/01/12 00:38:59;;;;;;;;;;;18.80;44.30;;;;;;5044421;28;42877;-81
2022/01/12 00:41:25;;;;;;;;;;;18.80;44.30;;;;;;5027607;28;42988;-78
2022/01/12 00:43:57;;;;;;;;;;;18.80;44.70;;;;;;5044694;28;42972;-81
2022/01/12 00:46:23;;;;;;;;;;;18.80;44.30;;;;;;5026664;28;43628;-86
2022/01/12 00:48:49;;;;;;;;;;;18.80;44.70;;;;;;5044988;28;42989;-79
2022/01/12 00:51:14;;;;;;;;;;;18.80;44.50;;;;;;5043853;28;43022;-84
2022/01/12 00:53:40;;;;;;;;;;;18.80;44.30;;;;;;5044268;28;43104;-76
2022/01/12 00:56:06;;;;;;;;;;;18.80;44.70;;;;;;5043579;28;43015;-83
2022/01/12 00:58:32;;;;;;;;;;;18.80;44.40;;;;;;5043089;28;43030;-81
2022/01/12 01:00:57;;;;;;;;;;;18.80;44.50;;;;;;5044892;28;42920;-78
2022/01/12 01:03:23;;;;;;;;;;;18.80;44.40;;;;;;5026882;28;43029;-75
2022/01/12 01:05:49;;;;;;;;;;;18.80;44.50;;;;;;5044494;28;43612;-81
2022/01/12 01:08:14;;;;;;;;;;;18.80;44.70;;;;;;5045417;28;42933;-77
2022/01/12 01:10:46;;;;;;;;;;;18.80;44.80;;;;;;5027891;28;44510;-78
2022/01/12 01:13:16;;;;;;;;;;;18.80;44.40;;;;;;5048958;28;43009;-87
2022/01/12 01:26:24;;;;;;;;;;;18.80;44.20;;;;;;5048431;28;42917;-80
2022/01/12 01:28:50;;;;;;;;;;;18.80;44.40;;;;;;5048467;28;42970;-75
2022/01/12 01:31:15;;;;;;;;;;;18.80;44.40;;;;;;5047812;28;42938;-76
2022/01/12 01:33:41;;;;;;;;;;;18.80;44.30;;;;;;5047829;28;43068;-79
2022/01/12 01:36:07;;;;;;;;;;;18.80;44.30;;;;;;5047222;28;43385;-79
2022/01/12 01:38:32;;;;;;;;;;;18.80;44.40;;;;;;5047559;28;43007;-74
2022/01/12 01:40:58;;;;;;;;;;;18.80;44.30;;;;;;5046560;28;43541;-84
2022/01/12 01:54:14;;;;;;;;;;;18.80;44.40;;;;;;5046919;28;43509;-75
2022/01/12 01:56:39;;;;;;;;;;;18.70;44.50;;;;;;5046592;28;43067;-78
2022/01/12 01:59:05;;;;;;;;;;;18.80;44.80;;;;;;5046815;28;42997;-83
2022/01/12 02:01:31;;;;;;;;;;;18.70;44.80;;;;;;5045927;28;43344;-78
2022/01/12 02:04:01;;;;;;;;;;;18.80;44.80;;;;;;5046068;28;42944;-75
2022/01/12 02:06:27;;;;;;;;;;;18.80;45.00;;;;;;5045922;28;43856;-74
2022/01/12 02:08:53;;;;;;;;;;;18.80;44.70;;;;;;5045856;28;42992;-74
2022/01/12 02:11:23;;;;;;;;;;;18.80;44.90;;;;;;5045942;28;42929;-79
2022/01/12 02:13:49;;;;;;;;;;;18.80;44.90;;;;;;5045996;28;43002;-79
2022/01/12 02:16:17;;;;;;;;;;;18.80;44.90;;;;;;5046349;28;43014;-75
2022/01/12 02:19:12;;;;;;;;;;;18.80;44.80;;;;;;5046622;28;42898;-78
2022/01/12 02:35:50;;;;;;;;;;;18.80;45.00;;;;;;4971966;28;43131;-76
2022/01/12 02:40:53;;;;;;;;;;;18.70;45.00;;;;;;4985712;28;43123;-85
2022/01/12 02:53:55;;;;;;;;;;;18.70;44.90;;;;;;4969308;28;42884;-74
2022/01/12 02:56:21;;;;;;;;;;;18.70;45.20;;;;;;4982558;28;43165;-86
2022/01/12 02:58:48;;;;;;;;;;;18.70;45.10;;;;;;4977483;28;43398;-77
2022/01/12 03:03:48;;;;;;;;;;;18.80;45.10;;;;;;4976673;28;43055;-85
2022/01/12 03:06:18;;;;;;;;;;;18.70;45.10;;;;;;4993110;28;43066;-84
2022/01/12 03:08:46;;;;;;;;;;;18.80;45.00;;;;;;5028382;28;63375;-82
2022/01/12 03:11:13;;;;;;;;;;;18.70;45.00;;;;;;5044505;28;43147;-83
2022/01/12 03:13:39;;;;;;;;;;;18.70;44.90;;;;;;5044694;28;43652;-87
2022/01/12 03:16:12;;;;;;;;;;;18.70;45.00;;;;;;5045214;28;42925;-85
2022/01/12 03:18:38;;;;;;;;;;;18.70;45.10;;;;;;5045207;28;44612;-82
2022/01/12 03:21:04;;;;;;;;;;;18.70;45.00;;;;;;5045259;28;43110;-87
2022/01/12 03:23:30;;;;;;;;;;;18.70;45.00;;;;;;5044759;28;42924;-86
2022/01/12 03:25:57;;;;;;;;;;;18.70;45.10;;;;;;5044310;28;42904;-84
2022/01/12 03:28:23;;;;;;;;;;;18.70;44.90;;;;;;5044360;28;43838;-81
2022/01/12 03:31:02;;;;;;;;;;;18.70;44.90;;;;;;5044949;28;42924;-75
2022/01/12 03:38:56;;;;;;;;;;;18.70;44.90;;;;;;5043523;28;42994;-81
2022/01/12 03:41:23;;;;;;;;;;;18.70;45.00;;;;;;5043842;28;43032;-82
2022/01/12 03:43:48;;;;;;;;;;;18.70;44.90;;;;;;5043965;28;43123;-81
2022/01/12 03:46:15;;;;;;;;;;;18.70;45.00;;;;;;5045073;28;43097;-78
2022/01/12 03:48:41;;;;;;;;;;;18.70;45.20;;;;;;5044010;28;44292;-83
2022/01/12 03:51:06;;;;;;;;;;;18.70;44.90;;;;;;5044798;28;43001;-79
2022/01/12 03:53:32;;;;;;;;;;;18.70;45.10;;;;;;5043647;28;44091;-86
2022/01/12 03:55:57;;;;;;;;;;;18.70;44.90;;;;;;5043769;28;42937;-79
2022/01/12 03:58:23;;;;;;;;;;;18.70;45.00;;;;;;5043390;28;43940;-74
2022/01/12 04:00:48;;;;;;;;;;;17.50;44.30;;;;;;5043694;28;42978;-79
2022/01/12 04:03:15;;;;;;;;;;;18.70;45.00;;;;;;5043861;28;43156;-80
2022/01/12 04:08:25;;;;;;;;;;;18.70;44.90;;;;;;5044097;28;43150;-76
2022/01/12 04:10:57;;;;;;;;;;;18.70;45.20;;;;;;5043617;28;43213;-80
2022/01/12 04:13:24;;;;;;;;;;;18.70;44.80;;;;;;5043595;28;43456;-84
2022/01/12 04:15:51;;;;;;;;;;;18.70;44.90;;;;;;5043359;28;42983;-80
2022/01/12 04:18:16;;;;;;;;;;;18.70;44.90;;;;;;5043423;28;43622;-80
2022/01/12 04:20:46;;;;;;;;;;;18.70;45.00;;;;;;5044311;28;42855;-78
2022/01/12 04:23:18;;;;;;;;;;;18.70;44.90;;;;;;5043796;28;43869;-75
2022/01/12 04:25:56;;;;;;;;;;;18.70;44.80;;;;;;5043455;28;43040;-74
2022/01/12 04:28:22;;;;;;;;;;;18.60;44.70;;;;;;5041787;28;43421;-84
2022/01/12 04:30:48;;;;;;;;;;;18.60;45.00;;;;;;5030577;28;43156;-82
2022/01/12 04:33:14;;;;;;;;;;;18.70;44.60;;;;;;5007417;28;44054;-79
2022/01/12 04:35:47;;;;;;;;;;;18.70;44.80;;;;;;5037767;28;43188;-76
2022/01/12 04:38:13;;;;;;;;;;;18.60;44.90;;;;;;5035827;28;43089;-76
2022/01/12 04:40:38;;;;;;;;;;;18.70;45.10;;;;;;5024623;28;42983;-80
2022/01/12 04:43:06;;;;;;;;;;;18.70;45.10;;;;;;5035870;28;43118;-75
2022/01/12 04:45:38;;;;;;;;;;;18.60;44.90;;;;;;5043681;28;42934;-76
2022/01/12 04:50:42;;;;;;;;;;;18.60;44.80;;;;;;5027561;28;43277;-78
2022/01/12 04:53:07;;;;;;;;;;;18.60;44.80;;;;;;5026206;28;43631;-83
2022/01/12 04:55:33;;;;;;;;;;;18.60;44.80;;;;;;5026824;28;42984;-76
2022/01/12 04:57:59;;;;;;;;;;;19.00;45.00;;;;;;5025557;28;42972;-77
2022/01/12 05:00:26;;;;;;;;;;;18.60;45.00;;;;;;5042379;28;43258;-74
2022/01/12 05:13:32;;;;;;;;;;;18.60;44.80;;;;;;5050284;28;42905;-79
2022/01/12 05:15:58;;;;;;;;;;;18.60;44.70;;;;;;5038016;28;43191;-76
2022/01/12 05:18:24;;;;;;;;;;;18.60;42.60;;;;;;5043776;28;43015;-80
2022/01/12 05:20:49;;;;;;;;;;;18.50;33.80;;;;;;5044934;28;42995;-79
2022/01/12 05:23:15;;;;;;;;;;;18.20;31.60;;;;;;5044262;28;44030;-81
2022/01/12 05:25:41;;;;;;;;;;;17.90;31.00;;;;;;5045838;28;42853;-79
2022/01/12 05:28:06;;;;;;;;;;;17.90;34.60;;;;;;5045769;28;43005;-82
2022/01/12 05:30:32;;;;;;;;;;;17.90;37.20;;;;;;5044758;28;42930;-80
2022/01/12 05:32:59;;;;;;;;;;;18.00;38.80;;;;;;5045518;28;42824;-83
2022/01/12 05:35:30;;;;;;;;;;;18.10;39.70;;;;;;5045451;28;42802;-82
2022/01/12 05:37:56;;;;;;;;;;;18.10;40.20;;;;;;5045798;28;43067;-82
2022/01/12 05:40:21;;;;;;;;;;;18.20;40.50;;;;;;5045854;28;42885;-75
2022/01/12 05:42:49;;;;;;;;;;;18.20;40.80;;;;;;5039227;28;42959;-78
2022/01/12 05:45:18;;;;;;;;;;;18.30;40.80;;;;;;5028076;28;43075;-78
2022/01/12 05:50:09;;;;;;;;;;;18.30;43.00;;;;;;5052625;28;42988;-80
2022/01/12 05:52:34;;;;;;;;;;;18.30;42.40;;;;;;5046152;28;42929;-84
2022/01/12 05:55:02;;;;;;;;;;;18.40;43.20;;;;;;5045349;28;42984;-78
2022/01/12 05:57:29;;;;;;;;;;;18.40;44.00;;;;;;5043765;28;44320;-80
2022/01/12 05:59:58;;;;;;;;;;;18.40;45.80;;;;;;5022012;28;43831;-81
2022/01/12 06:02:23;;;;;;;;;;;18.40;45.40;;;;;;5036182;28;44232;-79
2022/01/12 06:04:49;;;;;;;;;;;18.40;45.00;;;;;;5045318;28;43148;-81
2022/01/12 06:07:14;;;;;;;;;;;18.50;44.80;;;;;;5046613;28;43762;-81
2022/01/12 06:09:40;;;;;;;;;;;18.40;44.50;;;;;;5046460;28;42972;-81
2022/01/12 06:12:05;;;;;;;;;;;18.40;44.10;;;;;;5046076;28;43017;-78
2022/01/12 06:14:31;;;;;;;;;;;18.40;43.60;;;;;;5046016;28;42965;-80
2022/01/12 06:16:57;;;;;;;;;;;18.40;43.40;;;;;;5044964;28;43055;-81
2022/01/12 06:19:22;;;;;;;;;;;18.40;43.20;;;;;;5045301;28;43098;-80
2022/01/12 06:21:48;;;;;;;;;;;18.40;43.10;;;;;;5044390;28;42951;-79
2022/01/12 06:24:13;;;;;;;;;;;18.40;42.80;;;;;;5027265;28;42942;-81
2022/01/12 06:26:39;;;;;;;;;;;18.40;42.40;;;;;;5045651;28;43042;-82
2022/01/12 06:31:33;;;;;;;;;;;17.60;41.70;;;;;;5027266;28;43007;-81
2022/01/12 06:33:58;;;;;;;;;;;18.40;42.60;;;;;;5045340;28;43248;-82
2022/01/12 06:36:24;;;;;;;;;;;18.40;41.60;;;;;;5027458;28;44432;-83
2022/01/12 06:38:50;;;;;;;;;;;18.40;41.50;;;;;;5045323;28;43099;-81
2022/01/12 06:41:16;;;;;;;;;;;18.40;41.60;;;;;;5044221;28;43741;-79
2022/01/12 06:43:41;;;;;;;;;;;18.40;41.00;;;;;;5026615;28;42902;-78
2022/01/12 06:46:07;;;;;;;;;;;18.30;40.80;;;;;;5044656;28;43021;-83
2022/01/12 06:48:33;;;;;;;;;;;18.30;40.70;;;;;;5026327;28;42996;-83
2022/01/12 06:50:59;;;;;;;;;;;20.30;41.70;;;;;;5044006;28;43157;-82
2022/01/12 06:53:25;;;;;;;;;;;18.30;40.40;;;;;;5045334;28;42870;-81
2022/01/12 06:55:50;;;;;;;;;;;18.30;40.40;;;;;;5045785;28;43284;-79
2022/01/12 06:58:16;;;;;;;;;;;18.30;40.40;;;;;;5046167;28;42902;-80
2022/01/12 07:00:41;;;;;;;;;;;18.30;40.20;;;;;;5045731;28;42849;-82
2022/01/12 07:03:07;;;;;;;;;;;18.30;40.10;;;;;;5045046;28;42980;-77
2022/01/12 07:05:33;;;;;;;;;;;18.30;40.00;;;;;;5044639;28;43103;-80
2022/01/12 07:07:58;;;;;;;;;;;18.30;39.80;;;;;;5045770;28;43037;-81
2022/01/12 07:10:24;;;;;;;;;;;18.30;39.70;;;;;;5045307;28;42976;-80
2022/01/12 07:12:50;;;;;;;;;;;18.30;39.60;;;;;;5044754;28;43679;-80
2022/01/12 07:15:16;;;;;;;;;;;18.30;39.60;;;;;;5044944;28;43078;-81
2022/01/12 07:17:42;;;;;;;;;;;18.30;39.40;;;;;;5045227;28;43003;-82
2022/01/12 07:20:08;;;;;;;;;;;18.30;39.40;;;;;;5026959;28;45755;-79
2022/01/12 07:22:33;;;;;;;;;;;18.30;39.20;;;;;;5045190;28;42984;-79
2022/01/12 07:24:59;;;;;;;;;;;18.30;39.20;;;;;;5045213;28;42820;-79
2022/01/12 07:27:24;;;;;;;;;;;18.20;39.00;;;;;;5045381;28;43008;-76
2022/01/12 07:29:50;;;;;;;;;;;18.30;39.10;;;;;;5044914;28;44375;-81
2022/01/12 07:32:15;;;;;;;;;;;18.30;39.00;;;;;;5026391;28;43021;-78
2022/01/12 07:34:41;;;;;;;;;;;18.20;38.80;;;;;;5026724;28;44051;-79
2022/01/12 07:37:07;;;;;;;;;;;18.30;39.00;;;;;;5045058;28;42901;-79
2022/01/12 07:39:32;;;;;;;;;;;18.30;39.20;;;;;;5044881;28;42930;-80
2022/01/12 07:41:58;;;;;;;;;;;18.30;38.90;;;;;;5044092;28;43012;-80
2022/01/12 07:44:23;;;;;;;;;;;18.30;38.90;;;;;;5044029;28;43646;-81
2022/01/12 07:46:49;;;;;;;;;;;18.20;38.80;;;;;;5045162;28;42943;-78
2022/01/12 07:49:15;;;;;;;;;;;18.20;38.70;;;;;;5045102;28;42977;-77
2022/01/12 07:51:43;;;;;;;;;;;18.20;39.00;;;;;;5044461;28;42976;-76
2022/01/12 07:54:09;;;;;;;;;;;18.30;38.90;;;;;;5026484;28;42964;-80
2022/01/12 07:56:34;;;;;;;;;;;18.20;38.40;;;;;;5044882;28;42968;-81
2022/01/12 07:59:02;;;;;;;;;;;18.20;38.40;;;;;;5044900;28;43695;-73
2022/01/12 08:01:28;;;;;;;;;;;18.30;38.50;;;;;;5044777;28;42908;-80
2022/01/12 08:03:54;;;;;;;;;;;18.20;38.40;;;;;;5045097;28;43535;-79
2022/01/12 08:06:20;;;;;;;;;;;18.20;38.60;;;;;;5044558;28;42960;-79
2022/01/12 08:08:46;;;;;;;;;;;18.30;38.30;;;;;;5044063;28;43762;-79
2022/01/12 08:11:11;;;;;;;;;;;18.20;38.20;;;;;;5044228;28;42921;-78
2022/01/12 08:13:39;;;;;;;;;;;18.20;38.10;;;;;;5044577;28;42863;-80
2022/01/12 08:16:05;;;;;;;;;;;18.20;38.10;;;;;;5044805;28;42993;-78
2022/01/12 08:18:30;;;;;;;;;;;18.20;38.10;;;;;;5044363;28;44012;-79
2022/01/12 08:20:56;;;;;;;;;;;18.20;38.00;;;;;;5043719;28;42914;-80
2022/01/12 08:23:22;;;;;;;;;;;18.20;38.00;;;;;;5042641;28;42950;-80
2022/01/12 08:25:47;;;;;;;;;;;18.20;38.20;;;;;;5043869;28;43040;-76
2022/01/12 08:28:13;;;;;;;;;;;18.20;38.00;;;;;;5043784;28;43465;-79
2022/01/12 08:30:39;;;;;;;;;;;18.20;37.80;;;;;;5043884;28;42969;-80
2022/01/12 08:33:05;;;;;;;;;;;18.20;38.00;;;;;;5044267;28;43047;-79
2022/01/12 08:35:31;;;;;;;;;;;18.20;38.00;;;;;;5044992;28;42949;-80
2022/01/12 08:37:57;;;;;;;;;;;18.20;38.00;;;;;;5044532;28;43789;-79
2022/01/12 08:40:23;;;;;;;;;;;18.20;38.20;;;;;;5044040;28;43368;-80
2022/01/12 08:42:49;;;;;;;;;;;18.20;37.80;;;;;;5043529;28;43075;-80
2022/01/12 08:45:15;;;;;;;;;;;18.20;37.80;;;;;;5044378;28;42869;-81
2022/01/12 08:47:41;;;;;;;;;;;18.20;37.90;;;;;;5044295;28;42948;-79
2022/01/12 08:50:07;;;;;;;;;;;18.20;37.90;;;;;;5044743;28;42802;-79
2022/01/12 08:52:32;;;;;;;;;;;18.20;38.00;;;;;;5048613;28;42893;-79
2022/01/12 08:54:59;;;;;;;;;;;18.20;38.10;;;;;;5052427;28;42977;-78
2022/01/12 08:57:24;;;;;;;;;;;18.30;38.20;;;;;;5044276;28;43558;-81
2022/01/12 08:59:50;;;;;;;;;;;18.20;38.00;;;;;;5025481;28;43102;-79
2022/01/12 09:02:16;;;;;;;;;;;18.10;38.30;;;;;;5043249;28;43265;-80
2022/01/12 09:04:43;;;;;;;;;;;18.20;38.20;;;;;;5042535;28;42972;-80
2022/01/12 09:07:08;;;;;;;;;;;18.20;38.10;;;;;;5043247;28;43061;-80
2022/01/12 09:09:35;;;;;;;;;;;18.20;38.00;;;;;;5042987;28;42978;-79
2022/01/12 09:12:01;;;;;;;;;;;18.20;38.00;;;;;;5043726;28;43020;-80
2022/01/12 09:14:27;;;;;;;;;;;18.20;38.20;;;;;;5043960;28;43016;-80
2022/01/12 09:16:54;;;;;;;;;;;18.10;38.30;;;;;;5043046;28;42889;-81
2022/01/12 09:19:24;;;;;;;;;;;18.10;38.20;;;;;;5042883;28;43056;-77
2022/01/12 09:21:49;;;;;;;;;;;18.00;38.00;;;;;;5043444;28;43587;-80
2022/01/12 09:24:15;;;;;;;;;;;18.10;37.90;;;;;;5042997;28;43169;-80
2022/01/12 09:26:41;;;;;;;;;;;18.20;38.10;;;;;;5043500;28;42980;-73
2022/01/12 09:29:06;;;;;;;;;;;18.10;37.90;;;;;;5043405;28;43025;-72
2022/01/12 09:31:32;;;;;;;;;;;18.20;38.30;;;;;;5043140;28;42866;-80
2022/01/12 09:33:58;;;;;;;;;;;18.10;38.00;;;;;;5047299;28;42923;-79
2022/01/12 09:36:23;;;;;;;;;;;18.10;38.20;;;;;;5047292;28;42992;-74
2022/01/12 09:38:49;;;;;;;;;;;18.10;38.00;;;;;;5046626;28;42964;-81
2022/01/12 09:41:14;;;;;;;;;;;18.20;38.10;;;;;;5028591;28;43060;-77
2022/01/12 09:43:42;;;;;;;;;;;18.10;38.10;;;;;;5046367;28;43092;-81
2022/01/12 09:46:08;;;;;;;;;;;18.10;38.30;;;;;;5046657;28;43485;-79
2022/01/12 09:48:34;;;;;;;;;;;18.10;38.10;;;;;;5047003;28;42912;-80
2022/01/12 09:51:04;;;;;;;;;;;18.10;38.10;;;;;;5046861;28;42983;-81
2022/01/12 09:53:29;;;;;;;;;;;18.10;38.20;;;;;;5047188;28;43094;-82
2022/01/12 09:55:55;;;;;;;;;;;18.10;38.30;;;;;;5046163;28;43602;-80
2022/01/12 09:58:20;;;;;;;;;;;18.10;38.20;;;;;;5046484;28;43044;-79
2022/01/12 10:00:57;;;;;;;;;;;18.10;38.30;;;;;;5046168;28;43647;-79
2022/01/12 10:03:23;;;;;;;;;;;18.10;38.30;;;;;;5046331;28;42877;-82
2022/01/12 10:05:49;;;;;;;;;;;18.10;38.40;;;;;;5046134;28;43507;-82
2022/01/12 10:08:16;;;;;;;;;;;18.10;38.30;;;;;;5046771;28;42789;-79
2022/01/12 10:10:42;;;;;;;;;;;18.10;38.30;;;;;;5046327;28;43435;-81
2022/01/12 10:13:23;;;;;;;;;;;18.10;38.20;;;;;;5044405;28;42870;-75
2022/01/12 10:15:52;;;;;;;;;;;18.10;37.90;;;;;;5046117;28;44117;-79
2022/01/12 10:18:18;;;;;;;;;;;18.00;38.00;;;;;;5046018;28;43012;-82
2022/01/12 10:20:44;;;;;;;;;;;18.00;38.20;;;;;;5045826;28;42992;-78
2022/01/12 10:23:12;;;;;;;;;;;18.10;38.20;;;;;;5045630;28;43091;-74
2022/01/12 10:25:38;;;;;;;;;;;18.10;38.40;;;;;;5045385;28;42895;-77
2022/01/12 10:28:16;;;;;;;;;;;18.00;38.20;;;;;;5045490;28;43201;-72
2022/01/12 10:30:56;;;;;;;;;;;18.00;38.20;;;;;;5045837;28;42977;-79
2022/01/12 10:33:26;;;;;;;;;;;18.00;37.80;;;;;;5046160;28;43105;-73
2022/01/12 10:35:55;;;;;;;;;;;18.00;38.20;;;;;;5046155;28;43441;-74
2022/01/12 10:38:22;;;;;;;;;;;18.10;37.50;;;;;;5046480;28;42973;-80
2022/01/12 10:40:53;;;;;;;;;;;18.00;37.80;;;;;;5045756;28;44557;-75
2022/01/12 10:43:24;;;;;;;;;;;18.00;38.20;;;;;;5045694;28;42995;-72
2022/01/12 10:45:50;;;;;;;;;;;18.00;37.80;;;;;;5046167;28;43527;-73
2022/01/12 10:48:16;;;;;;;;;;;18.00;37.70;;;;;;5045646;28;42784;-77
2022/01/12 10:50:51;;;;;;;;;;;18.00;37.90;;;;;;5046105;28;44031;-79
2022/01/12 10:53:25;;;;;;;;;;;18.00;37.80;;;;;;5046203;28;43025;-75
2022/01/12 10:55:59;;;;;;;;;;;18.00;38.00;;;;;;5045640;28;43191;-75
2022/01/12 10:58:24;;;;;;;;;;;18.00;37.90;;;;;;5045152;28;43086;-73
2022/01/12 11:00:51;;;;;;;;;;;18.00;37.60;;;;;;5044887;28;42881;-74
2022/01/12 11:03:18;;;;;;;;;;;18.00;37.90;;;;;;5046507;28;42868;-73
2022/01/12 11:05:43;;;;;;;;;;;18.00;37.50;;;;;;5045513;28;43004;-73
2022/01/12 11:08:10;;;;;;;;;;;18.00;38.00;;;;;;5046073;28;42953;-73
2022/01/12 11:10:36;;;;;;;;;;;18.00;37.50;;;;;;5045855;28;43008;-73
2022/01/12 11:13:02;;;;;;;;;;;18.00;38.00;;;;;;5044997;28;43065;-75
2022/01/12 11:15:27;;;;;;;;;;;18.10;38.30;;;;;;5045548;28;42865;-74
2022/01/12 11:17:53;;;;;;;;;;;18.00;37.80;;;;;;5045326;28;42863;-80
2022/01/12 11:20:20;;;;;;;;;;;18.00;37.70;;;;;;5045603;28;42972;-77
2022/01/12 11:22:58;;;;;;;;;;;18.00;37.80;;;;;;5045796;28;42804;-78
2022/01/12 11:25:25;;;;;;;;;;;18.00;37.30;;;;;;5045270;28;43804;-75
2022/01/12 11:28:03;;;;;;;;;;;18.00;36.20;;;;;;5045006;28;43051;-73
2022/01/12 11:30:28;;;;;;;;;;;18.00;36.80;;;;;;5044864;28;43806;-73
2022/01/12 11:32:55;;;;;;;;;;;18.00;37.80;;;;;;5045231;28;42825;-73
2022/01/12 11:35:24;;;;;;;;;;;18.00;37.80;;;;;;5045376;28;42824;-73
2022/01/12 11:37:51;;;;;;;;;;;18.10;37.70;;;;;;5044956;28;42945;-73
2022/01/12 11:40:16;;;;;;;;;;;18.10;37.70;;;;;;5044137;28;44186;-73
2022/01/12 11:42:42;;;;;;;;;;;18.10;37.00;;;;;;5044922;28;43253;-73
2022/01/12 11:45:18;;;;;;;;;;;18.00;37.40;;;;;;5044726;28;43296;-75
2022/01/12 11:47:44;;;;;;;;;;;18.00;37.60;;;;;;5044480;28;42995;-77
2022/01/12 11:50:12;;;;;;;;;;;18.10;37.50;;;;;;5044366;28;42911;-75
2022/01/12 11:52:38;;;;;;;;;;;18.00;36.90;;;;;;5045139;28;43035;-78
2022/01/12 11:55:15;;;;;;;;;;;18.00;35.60;;;;;;5025523;28;44382;-77
2022/01/12 11:57:42;;;;;;;;;;;18.00;36.10;;;;;;5046833;28;42837;-77
2022/01/12 12:00:12;;;;;;;;;;;18.00;36.50;;;;;;5048263;28;42940;-77
2022/01/12 12:02:39;;;;;;;;;;;18.00;37.30;;;;;;5044718;28;43015;-78
2022/01/12 12:05:13;;;;;;;;;;;18.00;36.60;;;;;;5044013;28;43024;-73
2022/01/12 12:07:42;;;;;;;;;;;18.00;36.10;;;;;;5044610;28;43055;-75
2022/01/12 12:10:13;;;;;;;;;;;18.00;37.20;;;;;;5044065;28;43689;-75
2022/01/12 12:12:38;;;;;;;;;;;18.00;36.90;;;;;;5044368;28;42833;-81
2022/01/12 12:15:05;;;;;;;;;;;18.10;37.20;;;;;;5044346;28;43547;-82
2022/01/12 12:17:32;;;;;;;;;;;18.00;36.90;;;;;;5044176;28;43102;-83
2022/01/12 12:19:58;;;;;;;;;;;17.90;31.10;;;;;;5025857;28;44578;-78
2022/01/12 12:22:27;;;;;;;;;;;17.60;29.70;;;;;;5035644;28;43012;-76
2022/01/12 12:25:02;;;;;;;;;;;17.60;28.00;;;;;;5038638;28;43476;-75
2022/01/12 12:27:28;;;;;;;;;;;17.00;27.10;;;;;;5044067;28;42831;-76
2022/01/12 12:29:54;;;;;;;;;;;16.30;27.10;;;;;;5044124;28;43237;-75
2022/01/12 12:32:21;;;;;;;;;;;16.00;26.40;;;;;;5044676;28;42875;-75
2022/01/12 12:34:47;;;;;;;;;;;16.00;27.50;;;;;;5043819;28;43026;-75
2022/01/12 12:37:14;;;;;;;;;;;16.60;27.20;;;;;;5043827;28;42860;-73
2022/01/12 12:39:42;;;;;;;;;;;16.80;27.00;;;;;;5043489;28;43305;-73
2022/01/12 12:42:17;;;;;;;;;;;17.00;26.70;;;;;;5025354;28;43048;-73
2022/01/12 12:44:43;;;;;;;;;;;17.00;26.50;;;;;;5043847;28;43332;-73
2022/01/12 12:47:19;;;;;;;;;;;17.00;26.60;;;;;;5043855;28;43101;-74
2022/01/12 12:49:44;;;;;;;;;;;17.00;26.50;;;;;;5042794;28;43159;-73
2022/01/12 12:52:10;;;;;;;;;;;15.90;26.80;;;;;;5043620;28;43008;-73
2022/01/12 12:54:39;;;;;;;;;;;16.20;27.50;;;;;;5042130;28;42955;-73
2022/01/12 12:57:09;;;;;;;;;;;16.50;26.90;;;;;;5042925;28;42924;-74
2022/01/12 12:59:35;;;;;;;;;;;16.50;27.00;;;;;;5041955;28;43517;-73
2022/01/12 13:02:09;;;;;;;;;;;16.70;26.90;;;;;;5027920;28;43027;-75
2022/01/12 13:04:34;;;;;;;;;;;16.70;26.40;;;;;;5028823;28;43145;-72
2022/01/12 13:07:09;;;;;;;;;;;16.70;26.50;;;;;;5039401;28;43551;-75
2022/01/12 13:09:35;;;;;;;;;;;16.70;26.10;;;;;;5040318;28;43103;-76
2022/01/12 13:12:01;;;;;;;;;;;16.70;25.80;;;;;;5037938;28;42997;-78
2022/01/12 13:14:26;;;;;;;;;;;16.70;26.30;;;;;;5041502;28;43263;-75
2022/01/12 13:16:53;;;;;;;;;;;16.80;26.40;;;;;;5033188;28;43353;-77
2022/01/12 13:22:26;;;;;;;;;;;16.90;28.00;;;;;;5027885;28;43068;-76
2022/01/12 13:24:57;;;;;;;;;;;16.90;28.90;;;;;;5044413;28;43072;-75
2022/01/12 13:27:23;;;;;;;;;;;17.00;29.40;;;;;;5017913;28;43194;-77
2022/01/12 13:29:50;;;;;;;;;;;17.10;29.80;;;;;;5025087;28;43468;-75
2022/01/12 13:32:16;;;;;;;;;;;17.10;30.00;;;;;;5032603;28;42933;-79
2022/01/12 13:34:53;;;;;;;;;;;17.20;30.70;;;;;;5026985;28;45383;-76
2022/01/12 13:37:18;;;;;;;;;;;17.20;30.40;;;;;;5039073;28;44044;-77
2022/01/12 13:39:44;;;;;;;;;;;17.30;31.60;;;;;;5025655;28;43879;-76
2022/01/12 13:42:10;;;;;;;;;;;19.20;32.70;;;;;;5023869;28;43824;-76
2022/01/12 13:44:36;;;;;;;;;;;17.30;31.70;;;;;;5045434;28;43004;-76
2022/01/12 13:47:23;;;;;;;;;;;17.30;31.40;;;;;;5041489;28;43199;-75
2022/01/12 13:49:59;;;;;;;;;;;17.40;31.60;;;;;;5045203;28;43026;-76
2022/01/12 13:52:25;;;;;;;;;;;17.40;31.80;;;;;;5045730;28;42898;-74
2022/01/12 13:54:51;;;;;;;;;;;17.40;32.00;;;;;;5045145;28;43048;-74
2022/01/12 13:57:18;;;;;;;;;;;17.50;32.30;;;;;;5045923;28;43052;-74
2022/01/12 13:59:48;;;;;;;;;;;17.50;32.40;;;;;;5045783;28;42940;-77
2022/01/12 14:02:15;;;;;;;;;;;17.40;32.50;;;;;;5045841;28;42933;-75
2022/01/12 14:04:45;;;;;;;;;;;17.50;32.70;;;;;;5045417;28;43000;-75
2022/01/12 14:07:20;;;;;;;;;;;17.50;33.40;;;;;;5039244;28;42912;-74
2022/01/12 14:09:52;;;;;;;;;;;17.50;33.00;;;;;;5025582;28;43060;-76
2022/01/12 14:12:18;;;;;;;;;;;17.50;33.20;;;;;;5043691;28;43107;-75
2022/01/12 14:14:49;;;;;;;;;;;17.50;33.30;;;;;;5044619;28;43974;-75
2022/01/12 14:17:23;;;;;;;;;;;17.50;33.50;;;;;;5041952;28;42910;-76
2022/01/12 14:19:55;;;;;;;;;;;17.50;33.70;;;;;;5043236;28;43086;-75
2022/01/12 14:22:22;;;;;;;;;;;17.50;33.90;;;;;;5045636;28;43068;-78
2022/01/12 14:25:03;;;;;;;;;;;17.50;33.90;;;;;;5044813;28;43575;-76
2022/01/12 14:27:39;;;;;;;;;;;17.50;34.00;;;;;;5044323;28;43006;-75
2022/01/12 14:30:06;;;;;;;;;;;17.60;34.20;;;;;;5044698;28;44382;-77
2022/01/12 14:32:35;;;;;;;;;;;17.60;34.30;;;;;;5045140;28;42992;-78
2022/01/12 14:35:01;;;;;;;;;;;17.60;34.40;;;;;;5044711;28;43479;-74
2022/01/12 14:37:26;;;;;;;;;;;17.60;34.60;;;;;;5037333;28;42869;-75
2022/01/12 14:39:52;;;;;;;;;;;17.60;34.70;;;;;;5039549;28;44216;-78
2022/01/12 14:42:17;;;;;;;;;;;17.60;34.90;;;;;;5044994;28;42992;-79
2022/01/12 14:44:43;;;;;;;;;;;17.60;34.90;;;;;;5044885;28;42954;-75
2022/01/12 14:47:08;;;;;;;;;;;17.60;34.90;;;;;;5041261;28;42944;-76
2022/01/12 14:49:34;;;;;;;;;;;17.60;35.00;;;;;;5045304;28;43534;-76
2022/01/12 14:52:00;;;;;;;;;;;17.60;35.40;;;;;;5045894;28;43027;-77
2022/01/12 14:54:25;;;;;;;;;;;17.60;35.10;;;;;;5045147;28;43771;-76
2022/01/12 14:56:51;;;;;;;;;;;17.60;35.30;;;;;;5045758;28;43130;-77
2022/01/12 14:59:16;;;;;;;;;;;17.70;35.40;;;;;;5045144;28;42988;-78
2022/01/12 15:01:42;;;;;;;;;;;17.60;35.40;;;;;;5045238;28;43064;-76
2022/01/12 15:04:07;;;;;;;;;;;17.70;35.60;;;;;;5045751;28;42966;-76
2022/01/12 15:06:33;;;;;;;;;;;17.70;35.70;;;;;;5045955;28;42954;-77
2022/01/12 15:08:59;;;;;;;;;;;17.70;35.70;;;;;;5045776;28;43022;-75
2022/01/12 15:11:24;;;;;;;;;;;17.70;35.90;;;;;;5045594;28;43057;-77
2022/01/12 15:13:59;;;;;;;;;;;17.70;36.00;;;;;;5045012;28;42946;-76
2022/01/12 15:16:25;;;;;;;;;;;17.70;36.00;;;;;;5045389;28;43052;-76
2022/01/12 15:18:50;;;;;;;;;;;17.50;36.00;;;;;;5045009;28;43435;-74
2022/01/12 15:21:17;;;;;;;;;;;17.70;36.10;;;;;;5045517;28;43127;-77
2022/01/12 15:23:43;;;;;;;;;;;17.70;36.20;;;;;;5045731;28;43573;-76
2022/01/12 15:26:08;;;;;;;;;;;17.70;36.30;;;;;;5045613;28;42874;-76
2022/01/12 15:28:34;;;;;;;;;;;17.70;36.30;;;;;;5044460;28;42964;-78
2022/01/12 15:30:59;;;;;;;;;;;17.70;36.40;;;;;;5026619;28;42960;-77
2022/01/12 15:33:25;;;;;;;;;;;17.70;36.60;;;;;;5045177;28;42972;-77
2022/01/12 15:35:50;;;;;;;;;;;17.70;36.50;;;;;;5045135;28;43026;-77
2022/01/12 15:38:16;;;;;;;;;;;17.70;36.60;;;;;;5045055;28;43005;-77
2022/01/12 15:40:42;;;;;;;;;;;17.80;36.70;;;;;;5045123;28;42972;-77
2022/01/12 15:43:08;;;;;;;;;;;17.80;36.80;;;;;;5026628;28;44222;-77